createdAt,value
2023-05-06T00:01:48.836Z,14.0
2023-05-06T00:06:55.034Z,14.0
2023-05-06T00:12:01.250Z,14.0
2023-05-06T00:17:07.476Z,15.0
2023-05-06T00:22:13.679Z,14.5
2023-05-06T00:27:19.896Z,15.0
2023-05-06T00:32:26.154Z,14.0
2023-05-06T00:37:31.369Z,13.0
2023-05-06T00:42:37.572Z,14.0
2023-05-06T00:47:43.805Z,15.0
2023-05-06T00:52:49.036Z,15.0
2023-05-06T00:57:55.269Z,15.0
2023-05-06T01:03:01.592Z,15.0
2023-05-06T01:08:07.718Z,15.0
2023-05-06T01:13:14.025Z,16.0
2023-05-06T01:18:20.129Z,17.0
2023-05-06T01:23:26.325Z,18.0
2023-05-06T01:28:32.543Z,17.0
2023-05-06T01:33:38.742Z,17.0
2023-05-06T01:38:44.965Z,17.0
2023-05-06T01:43:51.165Z,16.0
2023-05-06T01:48:57.375Z,12.0
2023-05-06T01:54:03.594Z,14.0
2023-05-06T01:59:09.804Z,14.0
2023-05-06T02:04:16.064Z,16.0
2023-05-06T02:09:22.222Z,15.0
2023-05-06T02:14:28.429Z,14.0
2023-05-06T02:19:34.654Z,12.5
2023-05-06T02:24:40.851Z,15.0
2023-05-06T02:29:47.062Z,13.5
2023-05-06T02:34:53.274Z,12.0
2023-05-06T02:39:58.495Z,12.0
2023-05-06T02:45:04.723Z,11.0
2023-05-06T02:50:10.933Z,11.0
2023-05-06T02:55:17.136Z,11.0
2023-05-06T03:05:29.556Z,12.0
2023-05-06T03:10:35.753Z,11.0
2023-05-06T03:15:41.972Z,11.0
2023-05-06T03:20:48.176Z,11.0
2023-05-06T03:25:54.651Z,9.0
2023-05-06T03:31:00.582Z,11.0
2023-05-06T03:36:06.798Z,11.0
2023-05-06T03:41:12.997Z,11.0
2023-05-06T03:46:19.250Z,10.0
2023-05-06T03:51:25.431Z,9.0
2023-05-06T03:56:31.631Z,10.0
2023-05-06T04:01:37.838Z,11.0
2023-05-06T04:06:44.044Z,9.5
2023-05-06T04:11:50.245Z,7.0
2023-05-06T04:16:56.451Z,6.0
2023-05-06T04:22:02.681Z,7.0
2023-05-06T04:27:08.869Z,8.0
2023-05-06T04:32:14.122Z,8.0
2023-05-06T04:37:20.312Z,8.0
2023-05-06T04:42:25.548Z,8.0
2023-05-06T04:47:31.826Z,9.0
2023-05-06T04:52:37.015Z,8.0
2023-05-06T04:57:43.212Z,9.0
2023-05-06T05:02:49.598Z,10.0
2023-05-06T05:07:55.628Z,9.0
2023-05-06T05:13:01.890Z,10.0
2023-05-06T05:18:08.115Z,11.0
2023-05-06T05:23:14.245Z,12.0
2023-05-06T05:28:20.452Z,15.0
2023-05-06T05:33:26.722Z,15.0
2023-05-06T05:38:32.871Z,17.0
2023-05-06T05:43:39.082Z,17.0
2023-05-06T05:48:45.292Z,17.0
2023-05-06T05:53:51.513Z,18.0
2023-05-06T05:58:57.723Z,18.0
2023-05-06T06:04:04.095Z,17.0
2023-05-06T06:09:10.133Z,17.0
2023-05-06T06:14:15.375Z,16.0
2023-05-06T06:19:21.568Z,15.0
2023-05-06T06:24:27.802Z,14.0
2023-05-06T06:29:34.005Z,13.0
2023-05-06T06:34:40.212Z,13.0
2023-05-06T06:39:45.469Z,12.0
2023-05-06T06:44:51.669Z,12.0
2023-05-06T06:49:57.871Z,11.0
2023-05-06T06:55:03.106Z,10.0
2023-05-06T07:00:09.328Z,10.0
2023-05-06T07:05:15.528Z,10.0
2023-05-06T07:10:21.733Z,10.0
2023-05-06T07:15:27.936Z,10.0
2023-05-06T07:20:34.144Z,10.0
2023-05-06T07:25:40.350Z,10.0
2023-05-06T07:30:46.591Z,10.0
2023-05-06T07:35:52.774Z,10.0
2023-05-06T07:40:58.982Z,10.0
2023-05-06T07:46:05.276Z,9.0
2023-05-06T07:51:11.396Z,10.0
2023-05-06T07:56:17.605Z,9.0
2023-05-06T08:01:23.811Z,9.0
2023-05-06T08:06:30.015Z,8.0
2023-05-06T08:11:36.240Z,9.0
2023-05-06T08:16:42.590Z,8.0
2023-05-06T08:21:48.648Z,8.0
2023-05-06T08:26:54.863Z,8.0
2023-05-06T08:32:01.145Z,8.0
2023-05-06T08:37:07.281Z,8.0
2023-05-06T08:47:18.730Z,6.0
2023-05-06T08:52:23.957Z,5.0
2023-05-06T08:57:30.181Z,4.0
2023-05-06T09:02:36.511Z,4.0
2023-05-06T09:07:41.651Z,6.0
2023-05-06T09:12:47.842Z,5.0
2023-05-06T09:17:54.103Z,6.0
2023-05-06T09:23:00.260Z,6.0
2023-05-06T09:28:06.469Z,6.0
2023-05-06T09:33:12.738Z,6.0
2023-05-06T09:38:18.871Z,6.0
2023-05-06T09:43:25.085Z,5.0
2023-05-06T09:48:31.291Z,6.0
2023-05-06T09:53:37.522Z,5.0
2023-05-06T09:58:43.711Z,5.0
2023-05-06T10:03:50.069Z,5.0
2023-05-06T10:08:56.135Z,5.0
2023-05-06T10:14:02.328Z,4.0
2023-05-06T10:19:08.543Z,5.5
2023-05-06T10:24:14.763Z,5.0
2023-05-06T10:29:20.961Z,5.0
2023-05-06T10:34:27.179Z,5.0
2023-05-06T10:39:33.411Z,4.0
2023-05-06T10:44:39.581Z,3.0
2023-05-06T10:49:45.790Z,3.0
2023-05-06T10:54:51.154Z,2.0
2023-05-06T10:59:57.234Z,2.0
2023-05-06T11:05:03.458Z,2.0
2023-05-06T11:10:08.686Z,2.0
2023-05-06T11:15:14.890Z,2.0
2023-05-06T11:20:21.114Z,2.0
2023-05-06T11:25:27.309Z,2.0
2023-05-06T11:30:33.528Z,2.0
2023-05-06T11:35:39.726Z,2.0
2023-05-06T11:40:45.934Z,2.0
2023-05-06T11:45:52.252Z,2.0
2023-05-06T11:50:58.396Z,2.0
2023-05-06T11:56:04.570Z,2.0
2023-05-06T12:01:10.820Z,1.0
2023-05-06T12:06:17.013Z,1.0
2023-05-06T12:11:23.198Z,2.0
2023-05-06T12:16:29.421Z,1.0
2023-05-06T12:21:35.607Z,2.0
2023-05-06T12:26:41.816Z,2.0
2023-05-06T12:31:48.126Z,2.0
2023-05-06T12:36:54.245Z,2.0
2023-05-06T12:42:00.458Z,8.0
2023-05-06T12:47:06.669Z,2.0
2023-05-06T12:52:12.880Z,2.0
2023-05-06T12:57:18.113Z,2.0
2023-05-06T13:02:24.432Z,1.0
2023-05-06T13:07:29.571Z,1.0
2023-05-06T13:12:35.795Z,2.0
2023-05-06T13:17:42.026Z,1.0
2023-05-06T13:22:54.369Z,1.0
2023-05-06T13:27:54.434Z,1.0
2023-05-06T13:33:00.728Z,1.0
2023-05-06T13:38:06.849Z,1.0
2023-05-06T13:43:13.066Z,1.0
2023-05-06T13:48:19.287Z,1.0
2023-05-06T13:53:25.508Z,1.0
2023-05-06T13:58:31.711Z,1.0
2023-05-06T14:03:37.937Z,1.0
2023-05-06T14:08:44.142Z,1.0
2023-05-06T14:13:50.369Z,2.0
2023-05-06T14:18:56.568Z,1.0
2023-05-06T14:24:02.806Z,1.0
2023-05-06T14:29:09.024Z,1.0
2023-05-06T14:34:15.211Z,1.0
2023-05-06T14:39:21.436Z,2.0
2023-05-06T14:44:27.650Z,2.0
2023-05-06T14:49:33.856Z,2.0
2023-05-06T14:54:39.110Z,1.0
2023-05-06T14:59:45.320Z,2.0
2023-05-06T15:04:51.542Z,1.0
2023-05-06T15:09:56.789Z,2.0
2023-05-06T15:15:03.002Z,2.0
2023-05-06T15:20:09.226Z,2.0
2023-05-06T15:25:26.547Z,1.0
2023-05-06T15:30:21.652Z,2.0
2023-05-06T15:35:27.866Z,2.0
2023-05-06T15:40:34.116Z,2.0
2023-05-06T15:45:40.339Z,2.0
2023-05-06T15:50:46.488Z,2.0
2023-05-06T16:00:58.932Z,1.0
2023-05-06T16:06:05.132Z,2.0
2023-05-06T16:11:11.338Z,2.0
2023-05-06T16:16:17.572Z,2.0
2023-05-06T16:21:23.767Z,2.0
2023-05-06T16:26:29.981Z,2.0
2023-05-06T16:31:36.233Z,1.5
2023-05-06T16:36:42.390Z,1.0
2023-05-06T16:41:48.621Z,2.0
2023-05-06T16:46:54.900Z,1.0
2023-05-06T16:52:01.359Z,1.0
2023-05-06T16:57:07.276Z,2.0
2023-05-06T17:02:12.523Z,2.0
2023-05-06T17:07:18.734Z,1.0
2023-05-06T17:12:25.272Z,2.0
2023-05-06T17:17:30.273Z,2.0
2023-05-06T17:22:36.385Z,2.0
2023-05-06T17:27:42.533Z,2.0
2023-05-06T17:32:48.778Z,2.0
2023-05-06T17:37:54.962Z,2.0
2023-05-06T17:43:01.157Z,2.0
2023-05-06T17:48:07.434Z,2.0
2023-05-06T17:53:13.579Z,2.0
2023-05-06T17:58:19.797Z,2.0
2023-05-06T18:03:26.114Z,2.0
2023-05-06T18:08:32.209Z,2.0
2023-05-06T18:13:38.448Z,2.0
2023-05-06T18:18:44.634Z,2.0
2023-05-06T18:23:51.670Z,2.0
2023-05-06T18:28:57.049Z,2.0
2023-05-06T18:34:03.252Z,3.0
2023-05-06T18:39:09.449Z,3.0
2023-05-06T18:44:15.679Z,3.0
2023-05-06T18:49:21.873Z,3.0
2023-05-06T18:54:28.169Z,3.0
2023-05-06T19:04:40.504Z,4.0
2023-05-06T19:09:45.723Z,4.0
2023-05-06T19:14:51.939Z,4.0
2023-05-06T19:19:57.185Z,4.0
2023-05-06T19:25:03.378Z,5.0
2023-05-06T19:30:09.603Z,5.0
2023-05-06T19:35:15.801Z,5.0
2023-05-06T19:40:22.037Z,5.0
2023-05-06T19:45:28.232Z,5.0
2023-05-06T19:50:34.436Z,4.0
2023-05-06T19:55:40.632Z,4.5
2023-05-06T20:00:46.841Z,4.0
2023-05-06T20:05:53.050Z,4.0
2023-05-06T20:10:59.306Z,4.0
2023-05-06T20:16:05.525Z,4.0
2023-05-06T20:21:11.673Z,4.0
2023-05-06T20:31:24.138Z,3.0
2023-05-06T20:36:30.300Z,4.0
2023-05-06T20:41:36.527Z,3.0
2023-05-06T20:46:42.732Z,3.5
2023-05-06T20:51:48.947Z,3.0
2023-05-06T20:56:55.135Z,4.0
2023-05-06T21:02:01.401Z,3.0
2023-05-06T21:07:07.563Z,3.0
2023-05-06T21:12:12.799Z,3.0
2023-05-06T21:17:19.016Z,3.0
2023-05-06T21:22:24.233Z,3.0
2023-05-06T21:27:30.429Z,3.0
2023-05-06T21:32:36.687Z,3.0
2023-05-06T21:37:42.872Z,3.0
2023-05-06T21:42:49.078Z,3.0
2023-05-06T21:47:55.317Z,3.0
2023-05-06T21:53:01.472Z,3.0
2023-05-06T21:58:07.693Z,4.0
2023-05-06T22:03:13.972Z,4.0
2023-05-06T22:08:20.106Z,4.0
2023-05-06T22:13:26.402Z,4.0
2023-05-06T22:18:32.567Z,4.0
2023-05-06T22:23:38.766Z,4.0
2023-05-06T22:28:44.941Z,4.0
2023-05-06T22:33:51.152Z,4.0
2023-05-06T22:38:57.356Z,4.0
2023-05-06T22:44:03.552Z,4.0
2023-05-06T22:49:09.840Z,4.0
2023-05-06T22:54:15.977Z,4.0
2023-05-06T22:59:22.182Z,5.0
2023-05-06T23:04:28.386Z,5.0
2023-05-06T23:09:33.621Z,5.0
2023-05-06T23:14:39.839Z,5.0
2023-05-06T23:19:46.023Z,5.0
2023-05-06T23:24:51.291Z,5.0
2023-05-06T23:29:57.493Z,5.0
2023-05-06T23:35:03.724Z,5.0
2023-05-06T23:40:09.910Z,5.0
2023-05-06T23:50:22.342Z,6.0
2023-05-06T23:55:28.537Z,6.0
